sensor_id;sensor_type;location;lat;lon;timestamp;P1;durP1;ratioP1;P2;durP2;ratioP2
9128;SDS011;4599;50.906;6.786;2023-09-08T00:00:32;8.50;;;4.77;;
9128;SDS011;4599;50.906;6.786;2023-09-08T00:04:55;7.83;;;4.57;;
9128;SDS011;4599;50.906;6.786;2023-09-08T00:09:19;11.53;;;4.97;;
9128;SDS011;4599;50.906;6.786;2023-09-08T00:13:40;8.83;;;4.90;;
9128;SDS011;4599;50.906;6.786;2023-09-08T00:18:02;7.07;;;5.13;;
9128;SDS011;4599;50.906;6.786;2023-09-08T00:22:25;7.20;;;5.30;;
9128;SDS011;4599;50.906;6.786;2023-09-08T00:26:48;10.57;;;5.67;;
9128;SDS011;4599;50.906;6.786;2023-09-08T00:31:10;7.63;;;5.90;;
9128;SDS011;4599;50.906;6.786;2023-09-08T00:35:32;9.10;;;6.30;;
9128;SDS011;4599;50.906;6.786;2023-09-08T00:39:54;10.07;;;6.63;;
9128;SDS011;4599;50.906;6.786;2023-09-08T00:44:17;11.93;;;5.97;;
9128;SDS011;4599;50.906;6.786;2023-09-08T00:48:39;10.47;;;6.50;;
9128;SDS011;4599;50.906;6.786;2023-09-08T00:53:01;7.50;;;6.17;;
9128;SDS011;4599;50.906;6.786;2023-09-08T00:57:25;7.77;;;6.07;;
9128;SDS011;4599;50.906;6.786;2023-09-08T01:01:48;10.70;;;9.13;;
9128;SDS011;4599;50.906;6.786;2023-09-08T01:06:10;14.00;;;12.60;;
9128;SDS011;4599;50.906;6.786;2023-09-08T01:10:33;10.67;;;9.23;;
9128;SDS011;4599;50.906;6.786;2023-09-08T01:14:56;8.97;;;6.93;;
9128;SDS011;4599;50.906;6.786;2023-09-08T01:19:19;8.93;;;6.37;;
9128;SDS011;4599;50.906;6.786;2023-09-08T01:23:47;6.40;;;5.27;;
9128;SDS011;4599;50.906;6.786;2023-09-08T01:28:21;12.67;;;5.17;;
9128;SDS011;4599;50.906;6.786;2023-09-08T01:32:43;6.93;;;4.63;;
9128;SDS011;4599;50.906;6.786;2023-09-08T01:37:07;7.60;;;4.53;;
9128;SDS011;4599;50.906;6.786;2023-09-08T01:41:29;7.37;;;4.73;;
9128;SDS011;4599;50.906;6.786;2023-09-08T01:45:52;6.77;;;4.97;;
9128;SDS011;4599;50.906;6.786;2023-09-08T01:50:14;5.40;;;4.37;;
9128;SDS011;4599;50.906;6.786;2023-09-08T01:54:36;8.03;;;4.97;;
9128;SDS011;4599;50.906;6.786;2023-09-08T01:58:58;5.33;;;4.73;;
9128;SDS011;4599;50.906;6.786;2023-09-08T02:03:21;8.30;;;5.03;;
9128;SDS011;4599;50.906;6.786;2023-09-08T02:07:43;7.00;;;4.57;;
9128;SDS011;4599;50.906;6.786;2023-09-08T02:12:05;5.40;;;4.73;;
9128;SDS011;4599;50.906;6.786;2023-09-08T02:16:29;6.07;;;4.47;;
9128;SDS011;4599;50.906;6.786;2023-09-08T02:20:52;6.13;;;4.93;;
9128;SDS011;4599;50.906;6.786;2023-09-08T02:25:14;5.03;;;4.23;;
9128;SDS011;4599;50.906;6.786;2023-09-08T02:29:36;7.13;;;4.70;;
9128;SDS011;4599;50.906;6.786;2023-09-08T02:33:58;6.53;;;4.83;;
9128;SDS011;4599;50.906;6.786;2023-09-08T02:38:22;6.20;;;5.10;;
9128;SDS011;4599;50.906;6.786;2023-09-08T02:42:43;5.07;;;4.57;;
9128;SDS011;4599;50.906;6.786;2023-09-08T02:47:06;7.23;;;4.83;;
9128;SDS011;4599;50.906;6.786;2023-09-08T02:51:28;10.50;;;4.90;;
9128;SDS011;4599;50.906;6.786;2023-09-08T02:55:51;6.67;;;4.87;;
9128;SDS011;4599;50.906;6.786;2023-09-08T03:00:13;6.83;;;4.90;;
9128;SDS011;4599;50.906;6.786;2023-09-08T03:04:35;6.93;;;4.70;;
9128;SDS011;4599;50.906;6.786;2023-09-08T03:08:58;7.03;;;4.87;;
9128;SDS011;4599;50.906;6.786;2023-09-08T03:13:21;6.67;;;5.07;;
9128;SDS011;4599;50.906;6.786;2023-09-08T03:17:43;6.47;;;5.30;;
9128;SDS011;4599;50.906;6.786;2023-09-08T03:22:05;6.10;;;5.50;;
9128;SDS011;4599;50.906;6.786;2023-09-08T03:26:27;8.30;;;5.73;;
9128;SDS011;4599;50.906;6.786;2023-09-08T03:30:50;8.57;;;5.90;;
9128;SDS011;4599;50.906;6.786;2023-09-08T03:35:12;7.57;;;5.80;;
9128;SDS011;4599;50.906;6.786;2023-09-08T03:39:34;7.10;;;6.03;;
9128;SDS011;4599;50.906;6.786;2023-09-08T03:43:56;6.80;;;5.37;;
9128;SDS011;4599;50.906;6.786;2023-09-08T03:48:19;7.03;;;5.03;;
9128;SDS011;4599;50.906;6.786;2023-09-08T03:52:41;8.47;;;5.03;;
9128;SDS011;4599;50.906;6.786;2023-09-08T03:57:03;11.17;;;5.43;;
9128;SDS011;4599;50.906;6.786;2023-09-08T04:01:27;6.30;;;5.10;;
9128;SDS011;4599;50.906;6.786;2023-09-08T04:05:51;5.77;;;5.20;;
9128;SDS011;4599;50.906;6.786;2023-09-08T04:10:13;7.30;;;5.07;;
9128;SDS011;4599;50.906;6.786;2023-09-08T04:14:35;9.90;;;5.70;;
9128;SDS011;4599;50.906;6.786;2023-09-08T04:18:57;6.33;;;5.30;;
9128;SDS011;4599;50.906;6.786;2023-09-08T04:23:21;8.10;;;6.23;;
9128;SDS011;4599;50.906;6.786;2023-09-08T04:27:42;9.33;;;7.30;;
9128;SDS011;4599;50.906;6.786;2023-09-08T04:32:04;10.27;;;7.70;;
9128;SDS011;4599;50.906;6.786;2023-09-08T04:36:30;11.17;;;7.13;;
9128;SDS011;4599;50.906;6.786;2023-09-08T04:40:53;7.83;;;6.73;;
9128;SDS011;4599;50.906;6.786;2023-09-08T04:45:15;10.53;;;7.07;;
9128;SDS011;4599;50.906;6.786;2023-09-08T04:49:37;8.67;;;6.90;;
9128;SDS011;4599;50.906;6.786;2023-09-08T04:53:59;9.67;;;7.47;;
9128;SDS011;4599;50.906;6.786;2023-09-08T04:58:23;10.67;;;7.40;;
9128;SDS011;4599;50.906;6.786;2023-09-08T05:02:46;9.87;;;8.63;;
9128;SDS011;4599;50.906;6.786;2023-09-08T05:07:08;11.70;;;8.93;;
9128;SDS011;4599;50.906;6.786;2023-09-08T05:11:30;12.97;;;9.60;;
9128;SDS011;4599;50.906;6.786;2023-09-08T05:15:53;13.20;;;9.23;;
9128;SDS011;4599;50.906;6.786;2023-09-08T05:20:15;10.13;;;9.03;;
9128;SDS011;4599;50.906;6.786;2023-09-08T05:24:37;15.97;;;9.90;;
9128;SDS011;4599;50.906;6.786;2023-09-08T05:28:59;10.70;;;8.87;;
9128;SDS011;4599;50.906;6.786;2023-09-08T05:33:22;14.00;;;9.43;;
9128;SDS011;4599;50.906;6.786;2023-09-08T05:37:46;11.83;;;9.13;;
9128;SDS011;4599;50.906;6.786;2023-09-08T05:42:09;13.43;;;9.27;;
9128;SDS011;4599;50.906;6.786;2023-09-08T05:46:32;11.03;;;8.50;;
9128;SDS011;4599;50.906;6.786;2023-09-08T05:50:56;10.53;;;7.93;;
9128;SDS011;4599;50.906;6.786;2023-09-08T05:55:18;9.93;;;7.67;;
9128;SDS011;4599;50.906;6.786;2023-09-08T05:59:40;8.73;;;7.23;;
9128;SDS011;4599;50.906;6.786;2023-09-08T06:04:02;9.37;;;7.30;;
9128;SDS011;4599;50.906;6.786;2023-09-08T06:08:26;8.73;;;7.23;;
9128;SDS011;4599;50.906;6.786;2023-09-08T06:12:48;12.27;;;7.50;;
9128;SDS011;4599;50.906;6.786;2023-09-08T06:17:11;12.10;;;8.40;;
9128;SDS011;4599;50.906;6.786;2023-09-08T06:21:33;10.23;;;8.50;;
9128;SDS011;4599;50.906;6.786;2023-09-08T06:25:57;14.30;;;8.40;;
9128;SDS011;4599;50.906;6.786;2023-09-08T06:30:19;12.37;;;7.90;;
9128;SDS011;4599;50.906;6.786;2023-09-08T06:34:41;10.43;;;7.80;;
9128;SDS011;4599;50.906;6.786;2023-09-08T06:39:03;8.77;;;7.27;;
9128;SDS011;4599;50.906;6.786;2023-09-08T06:43:27;12.30;;;7.17;;
9128;SDS011;4599;50.906;6.786;2023-09-08T06:47:49;12.80;;;6.93;;
9128;SDS011;4599;50.906;6.786;2023-09-08T06:52:12;6.97;;;6.00;;
9128;SDS011;4599;50.906;6.786;2023-09-08T06:56:35;9.57;;;6.50;;
9128;SDS011;4599;50.906;6.786;2023-09-08T07:00:58;6.17;;;5.57;;
9128;SDS011;4599;50.906;6.786;2023-09-08T07:05:21;7.43;;;5.77;;
9128;SDS011;4599;50.906;6.786;2023-09-08T07:09:44;13.43;;;5.77;;
9128;SDS011;4599;50.906;6.786;2023-09-08T07:14:07;9.27;;;5.40;;
9128;SDS011;4599;50.906;6.786;2023-09-08T07:18:32;7.97;;;5.50;;
9128;SDS011;4599;50.906;6.786;2023-09-08T07:22:55;9.57;;;5.70;;
9128;SDS011;4599;50.906;6.786;2023-09-08T07:27:17;11.90;;;5.60;;
9128;SDS011;4599;50.906;6.786;2023-09-08T07:31:39;6.73;;;5.33;;
9128;SDS011;4599;50.906;6.786;2023-09-08T07:36:05;9.10;;;4.93;;
9128;SDS011;4599;50.906;6.786;2023-09-08T07:40:28;8.57;;;4.80;;
9128;SDS011;4599;50.906;6.786;2023-09-08T07:44:51;7.50;;;4.77;;
9128;SDS011;4599;50.906;6.786;2023-09-08T07:49:12;12.10;;;4.80;;
9128;SDS011;4599;50.906;6.786;2023-09-08T07:53:36;8.80;;;4.97;;
9128;SDS011;4599;50.906;6.786;2023-09-08T07:57:57;7.93;;;4.60;;
9128;SDS011;4599;50.906;6.786;2023-09-08T08:02:19;6.75;;;4.82;;
9128;SDS011;4599;50.906;6.786;2023-09-08T08:06:42;11.75;;;5.05;;
9128;SDS011;4599;50.906;6.786;2023-09-08T08:11:09;7.05;;;4.50;;
9128;SDS011;4599;50.906;6.786;2023-09-08T08:15:35;6.57;;;4.50;;
9128;SDS011;4599;50.906;6.786;2023-09-08T08:19:58;7.78;;;5.05;;
9128;SDS011;4599;50.906;6.786;2023-09-08T08:24:20;10.43;;;5.05;;
9128;SDS011;4599;50.906;6.786;2023-09-08T08:28:44;9.75;;;5.20;;
9128;SDS011;4599;50.906;6.786;2023-09-08T08:33:07;6.93;;;4.75;;
9128;SDS011;4599;50.906;6.786;2023-09-08T08:37:29;10.15;;;5.13;;
9128;SDS011;4599;50.906;6.786;2023-09-08T08:41:51;9.48;;;5.07;;
9128;SDS011;4599;50.906;6.786;2023-09-08T08:46:15;8.98;;;4.70;;
9128;SDS011;4599;50.906;6.786;2023-09-08T08:50:39;6.22;;;4.38;;
9128;SDS011;4599;50.906;6.786;2023-09-08T08:55:05;9.93;;;4.63;;
9128;SDS011;4599;50.906;6.786;2023-09-08T08:59:30;6.03;;;4.90;;
9128;SDS011;4599;50.906;6.786;2023-09-08T09:03:56;6.50;;;5.03;;
9128;SDS011;4599;50.906;6.786;2023-09-08T09:08:20;8.05;;;4.80;;
9128;SDS011;4599;50.906;6.786;2023-09-08T09:12:44;11.85;;;4.40;;
9128;SDS011;4599;50.906;6.786;2023-09-08T09:17:09;5.35;;;4.50;;
9128;SDS011;4599;50.906;6.786;2023-09-08T09:21:45;8.45;;;4.53;;
9128;SDS011;4599;50.906;6.786;2023-09-08T09:26:08;7.38;;;4.22;;
9128;SDS011;4599;50.906;6.786;2023-09-08T09:30:45;7.65;;;4.38;;
9128;SDS011;4599;50.906;6.786;2023-09-08T09:35:10;6.90;;;4.65;;
9128;SDS011;4599;50.906;6.786;2023-09-08T09:39:34;6.47;;;4.15;;
9128;SDS011;4599;50.906;6.786;2023-09-08T09:43:57;9.30;;;4.57;;
9128;SDS011;4599;50.906;6.786;2023-09-08T09:48:19;10.35;;;4.57;;
9128;SDS011;4599;50.906;6.786;2023-09-08T09:52:42;9.70;;;4.82;;
9128;SDS011;4599;50.906;6.786;2023-09-08T09:57:06;5.90;;;4.32;;
9128;SDS011;4599;50.906;6.786;2023-09-08T10:01:28;12.13;;;4.60;;
9128;SDS011;4599;50.906;6.786;2023-09-08T10:05:51;8.63;;;4.80;;
9128;SDS011;4599;50.906;6.786;2023-09-08T10:10:20;8.48;;;4.75;;
9128;SDS011;4599;50.906;6.786;2023-09-08T10:14:44;5.43;;;4.30;;
9128;SDS011;4599;50.906;6.786;2023-09-08T10:19:10;11.00;;;4.80;;
9128;SDS011;4599;50.906;6.786;2023-09-08T10:23:34;8.13;;;4.28;;
9128;SDS011;4599;50.906;6.786;2023-09-08T10:27:57;9.70;;;4.70;;
9128;SDS011;4599;50.906;6.786;2023-09-08T10:32:24;9.57;;;4.30;;
9128;SDS011;4599;50.906;6.786;2023-09-08T10:36:46;4.60;;;3.78;;
9128;SDS011;4599;50.906;6.786;2023-09-08T10:41:27;7.88;;;4.38;;
9128;SDS011;4599;50.906;6.786;2023-09-08T10:45:50;6.25;;;3.92;;
9128;SDS011;4599;50.906;6.786;2023-09-08T10:50:17;7.07;;;4.30;;
9128;SDS011;4599;50.906;6.786;2023-09-08T10:54:42;10.63;;;4.30;;
9128;SDS011;4599;50.906;6.786;2023-09-08T10:59:05;6.63;;;4.10;;
9128;SDS011;4599;50.906;6.786;2023-09-08T11:03:28;6.15;;;3.97;;
9128;SDS011;4599;50.906;6.786;2023-09-08T11:08:06;6.63;;;4.03;;
9128;SDS011;4599;50.906;6.786;2023-09-08T11:12:29;5.43;;;4.00;;
9128;SDS011;4599;50.906;6.786;2023-09-08T11:16:57;6.70;;;4.30;;
9128;SDS011;4599;50.906;6.786;2023-09-08T11:21:20;9.93;;;4.43;;
9128;SDS011;4599;50.906;6.786;2023-09-08T11:25:48;8.32;;;4.40;;
9128;SDS011;4599;50.906;6.786;2023-09-08T11:30:11;6.57;;;4.10;;
9128;SDS011;4599;50.906;6.786;2023-09-08T11:34:34;8.73;;;3.90;;
9128;SDS011;4599;50.906;6.786;2023-09-08T11:38:56;8.82;;;4.72;;
9128;SDS011;4599;50.906;6.786;2023-09-08T11:43:20;9.02;;;4.72;;
9128;SDS011;4599;50.906;6.786;2023-09-08T11:47:43;7.53;;;4.00;;
9128;SDS011;4599;50.906;6.786;2023-09-08T11:52:06;8.48;;;4.50;;
9128;SDS011;4599;50.906;6.786;2023-09-08T11:56:28;9.68;;;4.20;;
9128;SDS011;4599;50.906;6.786;2023-09-08T12:00:57;6.25;;;4.57;;
9128;SDS011;4599;50.906;6.786;2023-09-08T12:05:22;8.82;;;4.53;;
9128;SDS011;4599;50.906;6.786;2023-09-08T12:09:46;7.65;;;4.25;;
9128;SDS011;4599;50.906;6.786;2023-09-08T12:14:09;10.70;;;4.43;;
9128;SDS011;4599;50.906;6.786;2023-09-08T12:18:39;6.88;;;4.45;;
9128;SDS011;4599;50.906;6.786;2023-09-08T12:23:02;10.23;;;4.55;;
9128;SDS011;4599;50.906;6.786;2023-09-08T12:27:23;6.10;;;4.35;;
9128;SDS011;4599;50.906;6.786;2023-09-08T12:31:44;4.97;;;4.18;;
9128;SDS011;4599;50.906;6.786;2023-09-08T12:36:13;7.10;;;4.05;;
9128;SDS011;4599;50.906;6.786;2023-09-08T12:40:36;6.60;;;4.25;;
9128;SDS011;4599;50.906;6.786;2023-09-08T12:44:58;5.82;;;4.32;;
9128;SDS011;4599;50.906;6.786;2023-09-08T12:49:22;6.40;;;4.38;;
9128;SDS011;4599;50.906;6.786;2023-09-08T12:54:03;7.82;;;4.80;;
9128;SDS011;4599;50.906;6.786;2023-09-08T12:58:54;7.75;;;4.40;;
9128;SDS011;4599;50.906;6.786;2023-09-08T13:03:17;6.43;;;4.32;;
9128;SDS011;4599;50.906;6.786;2023-09-08T13:07:38;11.38;;;4.43;;
9128;SDS011;4599;50.906;6.786;2023-09-08T13:12:01;12.10;;;3.75;;
9128;SDS011;4599;50.906;6.786;2023-09-08T13:16:22;7.60;;;4.35;;
9128;SDS011;4599;50.906;6.786;2023-09-08T13:20:43;9.65;;;4.18;;
9128;SDS011;4599;50.906;6.786;2023-09-08T13:25:05;8.45;;;3.90;;
9128;SDS011;4599;50.906;6.786;2023-09-08T13:29:27;10.35;;;4.20;;
9128;SDS011;4599;50.906;6.786;2023-09-08T13:33:48;6.82;;;4.18;;
9128;SDS011;4599;50.906;6.786;2023-09-08T13:38:09;11.52;;;4.38;;
9128;SDS011;4599;50.906;6.786;2023-09-08T13:42:32;7.45;;;4.18;;
9128;SDS011;4599;50.906;6.786;2023-09-08T13:46:55;7.13;;;4.15;;
9128;SDS011;4599;50.906;6.786;2023-09-08T13:51:18;8.10;;;4.15;;
9128;SDS011;4599;50.906;6.786;2023-09-08T13:55:41;6.28;;;4.07;;
9128;SDS011;4599;50.906;6.786;2023-09-08T14:00:10;8.35;;;4.10;;
9128;SDS011;4599;50.906;6.786;2023-09-08T14:04:37;5.57;;;3.60;;
9128;SDS011;4599;50.906;6.786;2023-09-08T14:09:00;6.75;;;3.90;;
9128;SDS011;4599;50.906;6.786;2023-09-08T14:13:42;7.25;;;3.90;;
9128;SDS011;4599;50.906;6.786;2023-09-08T14:18:03;9.57;;;4.13;;
9128;SDS011;4599;50.906;6.786;2023-09-08T14:22:29;7.85;;;3.60;;
9128;SDS011;4599;50.906;6.786;2023-09-08T14:26:49;6.20;;;3.97;;
9128;SDS011;4599;50.906;6.786;2023-09-08T14:31:09;7.25;;;3.80;;
9128;SDS011;4599;50.906;6.786;2023-09-08T14:35:30;7.18;;;3.60;;
9128;SDS011;4599;50.906;6.786;2023-09-08T14:39:52;4.60;;;3.53;;
9128;SDS011;4599;50.906;6.786;2023-09-08T14:44:14;5.45;;;3.65;;
9128;SDS011;4599;50.906;6.786;2023-09-08T14:48:36;6.40;;;4.32;;
9128;SDS011;4599;50.906;6.786;2023-09-08T14:52:56;8.00;;;4.18;;
9128;SDS011;4599;50.906;6.786;2023-09-08T14:57:18;8.77;;;3.85;;
9128;SDS011;4599;50.906;6.786;2023-09-08T15:01:38;7.05;;;4.10;;
9128;SDS011;4599;50.906;6.786;2023-09-08T15:06:00;11.00;;;3.95;;
9128;SDS011;4599;50.906;6.786;2023-09-08T15:10:20;7.70;;;3.97;;
9128;SDS011;4599;50.906;6.786;2023-09-08T15:14:47;6.90;;;4.15;;
9128;SDS011;4599;50.906;6.786;2023-09-08T15:19:08;12.10;;;5.65;;
9128;SDS011;4599;50.906;6.786;2023-09-08T15:23:28;6.32;;;4.03;;
9128;SDS011;4599;50.906;6.786;2023-09-08T15:27:49;7.53;;;4.00;;
9128;SDS011;4599;50.906;6.786;2023-09-08T15:32:11;9.90;;;3.88;;
9128;SDS011;4599;50.906;6.786;2023-09-08T15:36:32;6.88;;;4.00;;
9128;SDS011;4599;50.906;6.786;2023-09-08T15:45:35;4.70;;;4.07;;
9128;SDS011;4599;50.906;6.786;2023-09-08T15:49:56;9.82;;;4.65;;
9128;SDS011;4599;50.906;6.786;2023-09-08T15:54:17;7.30;;;4.35;;
9128;SDS011;4599;50.906;6.786;2023-09-08T15:58:37;5.57;;;3.90;;
9128;SDS011;4599;50.906;6.786;2023-09-08T16:02:58;6.70;;;4.07;;
9128;SDS011;4599;50.906;6.786;2023-09-08T16:07:20;4.68;;;4.13;;
9128;SDS011;4599;50.906;6.786;2023-09-08T16:11:41;8.77;;;4.00;;
9128;SDS011;4599;50.906;6.786;2023-09-08T16:16:01;6.10;;;3.85;;
9128;SDS011;4599;50.906;6.786;2023-09-08T16:20:21;4.97;;;3.90;;
9128;SDS011;4599;50.906;6.786;2023-09-08T16:24:43;7.75;;;3.67;;
9128;SDS011;4599;50.906;6.786;2023-09-08T16:29:06;7.80;;;4.10;;
9128;SDS011;4599;50.906;6.786;2023-09-08T16:33:26;6.75;;;3.90;;
9128;SDS011;4599;50.906;6.786;2023-09-08T16:37:46;8.77;;;3.92;;
9128;SDS011;4599;50.906;6.786;2023-09-08T16:42:08;5.72;;;3.85;;
9128;SDS011;4599;50.906;6.786;2023-09-08T16:46:28;4.78;;;3.80;;
9128;SDS011;4599;50.906;6.786;2023-09-08T16:50:49;4.90;;;3.90;;
9128;SDS011;4599;50.906;6.786;2023-09-08T16:55:09;5.38;;;3.80;;
9128;SDS011;4599;50.906;6.786;2023-09-08T16:59:31;4.00;;;3.65;;
9128;SDS011;4599;50.906;6.786;2023-09-08T17:03:51;6.55;;;4.00;;
9128;SDS011;4599;50.906;6.786;2023-09-08T17:08:12;5.75;;;3.70;;
9128;SDS011;4599;50.906;6.786;2023-09-08T17:12:33;4.22;;;3.90;;
9128;SDS011;4599;50.906;6.786;2023-09-08T17:16:54;4.43;;;3.80;;
9128;SDS011;4599;50.906;6.786;2023-09-08T17:21:15;6.57;;;4.10;;
9128;SDS011;4599;50.906;6.786;2023-09-08T17:25:35;5.00;;;3.95;;
9128;SDS011;4599;50.906;6.786;2023-09-08T17:29:56;5.50;;;4.07;;
9128;SDS011;4599;50.906;6.786;2023-09-08T17:34:18;4.13;;;3.72;;
9128;SDS011;4599;50.906;6.786;2023-09-08T17:38:39;6.80;;;3.67;;
9128;SDS011;4599;50.906;6.786;2023-09-08T17:42:59;6.60;;;3.92;;
9128;SDS011;4599;50.906;6.786;2023-09-08T17:47:20;5.80;;;4.15;;
9128;SDS011;4599;50.906;6.786;2023-09-08T17:51:42;5.90;;;4.00;;
9128;SDS011;4599;50.906;6.786;2023-09-08T17:56:02;5.30;;;3.85;;
9128;SDS011;4599;50.906;6.786;2023-09-08T18:00:23;5.45;;;3.92;;
9128;SDS011;4599;50.906;6.786;2023-09-08T18:04:43;4.85;;;3.75;;
9128;SDS011;4599;50.906;6.786;2023-09-08T18:09:05;4.78;;;3.72;;
9128;SDS011;4599;50.906;6.786;2023-09-08T18:13:25;6.97;;;4.20;;
9128;SDS011;4599;50.906;6.786;2023-09-08T18:17:46;5.97;;;4.85;;
9128;SDS011;4599;50.906;6.786;2023-09-08T18:22:07;7.70;;;4.43;;
9128;SDS011;4599;50.906;6.786;2023-09-08T18:26:29;9.00;;;5.05;;
9128;SDS011;4599;50.906;6.786;2023-09-08T18:30:50;8.38;;;5.03;;
9128;SDS011;4599;50.906;6.786;2023-09-08T18:35:11;5.63;;;4.40;;
9128;SDS011;4599;50.906;6.786;2023-09-08T18:39:31;7.82;;;4.38;;
9128;SDS011;4599;50.906;6.786;2023-09-08T18:43:53;5.85;;;4.28;;
9128;SDS011;4599;50.906;6.786;2023-09-08T18:48:13;7.95;;;4.38;;
9128;SDS011;4599;50.906;6.786;2023-09-08T18:52:34;7.70;;;4.60;;
9128;SDS011;4599;50.906;6.786;2023-09-08T18:56:55;6.60;;;4.27;;
9128;SDS011;4599;50.906;6.786;2023-09-08T19:01:17;5.90;;;4.30;;
9128;SDS011;4599;50.906;6.786;2023-09-08T19:05:37;4.97;;;4.33;;
9128;SDS011;4599;50.906;6.786;2023-09-08T19:09:58;5.77;;;4.53;;
9128;SDS011;4599;50.906;6.786;2023-09-08T19:14:18;6.37;;;4.50;;
9128;SDS011;4599;50.906;6.786;2023-09-08T19:18:40;6.40;;;4.53;;
9128;SDS011;4599;50.906;6.786;2023-09-08T19:23:01;6.53;;;4.73;;
9128;SDS011;4599;50.906;6.786;2023-09-08T19:27:21;8.00;;;4.60;;
9128;SDS011;4599;50.906;6.786;2023-09-08T19:31:42;6.13;;;4.80;;
9128;SDS011;4599;50.906;6.786;2023-09-08T19:36:04;9.03;;;5.60;;
9128;SDS011;4599;50.906;6.786;2023-09-08T19:40:24;8.73;;;5.00;;
9128;SDS011;4599;50.906;6.786;2023-09-08T19:44:45;6.33;;;5.10;;
9128;SDS011;4599;50.906;6.786;2023-09-08T19:49:06;9.40;;;5.43;;
9128;SDS011;4599;50.906;6.786;2023-09-08T19:53:27;7.07;;;5.40;;
9128;SDS011;4599;50.906;6.786;2023-09-08T19:57:48;6.87;;;5.63;;
9128;SDS011;4599;50.906;6.786;2023-09-08T20:02:08;6.97;;;5.27;;
9128;SDS011;4599;50.906;6.786;2023-09-08T20:06:29;6.80;;;5.07;;
9128;SDS011;4599;50.906;6.786;2023-09-08T20:10:54;6.83;;;5.47;;
9128;SDS011;4599;50.906;6.786;2023-09-08T20:15:14;6.10;;;5.23;;
9128;SDS011;4599;50.906;6.786;2023-09-08T20:19:35;7.90;;;5.63;;
9128;SDS011;4599;50.906;6.786;2023-09-08T20:23:55;6.77;;;5.13;;
9128;SDS011;4599;50.906;6.786;2023-09-08T20:28:17;7.00;;;5.17;;
9128;SDS011;4599;50.906;6.786;2023-09-08T20:32:37;9.37;;;5.73;;
9128;SDS011;4599;50.906;6.786;2023-09-08T20:36:58;6.83;;;5.40;;
9128;SDS011;4599;50.906;6.786;2023-09-08T20:41:18;8.37;;;5.20;;
9128;SDS011;4599;50.906;6.786;2023-09-08T20:45:40;6.20;;;5.50;;
9128;SDS011;4599;50.906;6.786;2023-09-08T20:50:00;8.70;;;5.67;;
9128;SDS011;4599;50.906;6.786;2023-09-08T20:54:21;9.30;;;6.00;;
9128;SDS011;4599;50.906;6.786;2023-09-08T20:58:41;9.90;;;7.90;;
9128;SDS011;4599;50.906;6.786;2023-09-08T21:03:04;8.23;;;6.53;;
9128;SDS011;4599;50.906;6.786;2023-09-08T21:07:24;10.10;;;6.07;;
9128;SDS011;4599;50.906;6.786;2023-09-08T21:11:45;6.97;;;4.93;;
9128;SDS011;4599;50.906;6.786;2023-09-08T21:16:05;9.23;;;5.60;;
9128;SDS011;4599;50.906;6.786;2023-09-08T21:20:27;27.97;;;19.60;;
9128;SDS011;4599;50.906;6.786;2023-09-08T21:24:47;12.40;;;8.13;;
9128;SDS011;4599;50.906;6.786;2023-09-08T21:29:09;9.73;;;7.80;;
9128;SDS011;4599;50.906;6.786;2023-09-08T21:33:30;8.03;;;6.80;;
9128;SDS011;4599;50.906;6.786;2023-09-08T21:37:53;9.37;;;6.47;;
9128;SDS011;4599;50.906;6.786;2023-09-08T21:42:13;10.17;;;6.07;;
9128;SDS011;4599;50.906;6.786;2023-09-08T21:46:33;10.60;;;5.87;;
9128;SDS011;4599;50.906;6.786;2023-09-08T21:50:54;6.93;;;6.23;;
9128;SDS011;4599;50.906;6.786;2023-09-08T21:55:15;11.60;;;6.40;;
9128;SDS011;4599;50.906;6.786;2023-09-08T21:59:36;11.83;;;7.33;;
9128;SDS011;4599;50.906;6.786;2023-09-08T22:03:57;9.77;;;5.90;;
9128;SDS011;4599;50.906;6.786;2023-09-08T22:08:18;7.60;;;5.77;;
9128;SDS011;4599;50.906;6.786;2023-09-08T22:12:41;8.80;;;6.23;;
9128;SDS011;4599;50.906;6.786;2023-09-08T22:21:25;6.80;;;6.20;;
9128;SDS011;4599;50.906;6.786;2023-09-08T22:25:45;6.27;;;5.67;;
9128;SDS011;4599;50.906;6.786;2023-09-08T22:30:07;9.47;;;6.20;;
9128;SDS011;4599;50.906;6.786;2023-09-08T22:34:28;8.00;;;5.83;;
9128;SDS011;4599;50.906;6.786;2023-09-08T22:38:48;7.00;;;5.73;;
9128;SDS011;4599;50.906;6.786;2023-09-08T22:43:09;10.63;;;6.10;;
9128;SDS011;4599;50.906;6.786;2023-09-08T22:47:30;6.13;;;5.50;;
9128;SDS011;4599;50.906;6.786;2023-09-08T22:51:51;10.47;;;5.67;;
9128;SDS011;4599;50.906;6.786;2023-09-08T22:56:11;7.90;;;6.50;;
9128;SDS011;4599;50.906;6.786;2023-09-08T23:00:32;7.67;;;6.30;;
9128;SDS011;4599;50.906;6.786;2023-09-08T23:04:54;9.37;;;6.80;;
9128;SDS011;4599;50.906;6.786;2023-09-08T23:09:14;7.13;;;6.00;;
9128;SDS011;4599;50.906;6.786;2023-09-08T23:13:34;7.53;;;6.20;;
9128;SDS011;4599;50.906;6.786;2023-09-08T23:17:55;8.27;;;6.17;;
9128;SDS011;4599;50.906;6.786;2023-09-08T23:22:17;8.97;;;6.93;;
9128;SDS011;4599;50.906;6.786;2023-09-08T23:26:37;11.80;;;6.73;;
9128;SDS011;4599;50.906;6.786;2023-09-08T23:30:57;7.93;;;6.70;;
9128;SDS011;4599;50.906;6.786;2023-09-08T23:35:18;7.67;;;6.87;;
9128;SDS011;4599;50.906;6.786;2023-09-08T23:39:40;7.27;;;6.50;;
9128;SDS011;4599;50.906;6.786;2023-09-08T23:44:00;7.00;;;6.27;;
9128;SDS011;4599;50.906;6.786;2023-09-08T23:48:20;9.23;;;6.30;;
9128;SDS011;4599;50.906;6.786;2023-09-08T23:52:40;7.97;;;6.37;;
9128;SDS011;4599;50.906;6.786;2023-09-08T23:57:02;7.13;;;6.20;;
